sensor_id;sensor_type;location;lat;lon;timestamp;pressure;altitude;pressure_sealevel;temperature;humidity
4012;BME280;2020;48.682;9.024;2022-07-29T00:01:14;96292.38;;;19.07;77.08
4012;BME280;2020;48.682;9.024;2022-07-29T00:03:40;96288.81;;;18.88;77.88
4012;BME280;2020;48.682;9.024;2022-07-29T00:06:05;96280.25;;;18.99;76.96
4012;BME280;2020;48.682;9.024;2022-07-29T00:08:31;96278.97;;;19.09;76.64
4012;BME280;2020;48.682;9.024;2022-07-29T00:10:56;96282.34;;;18.84;77.68
4012;BME280;2020;48.682;9.024;2022-07-29T00:13:21;96285.16;;;18.89;77.35
4012;BME280;2020;48.682;9.024;2022-07-29T00:15:47;96274.22;;;18.85;77.69
4012;BME280;2020;48.682;9.024;2022-07-29T00:18:12;96282.34;;;18.84;77.93
4012;BME280;2020;48.682;9.024;2022-07-29T00:20:37;96276.13;;;18.71;78.64
4012;BME280;2020;48.682;9.024;2022-07-29T00:23:02;96278.41;;;18.68;78.84
4012;BME280;2020;48.682;9.024;2022-07-29T00:25:28;96276.00;;;18.60;78.98
4012;BME280;2020;48.682;9.024;2022-07-29T00:27:53;96276.03;;;18.53;79.43
4012;BME280;2020;48.682;9.024;2022-07-29T00:30:18;96283.50;;;18.56;79.13
4012;BME280;2020;48.682;9.024;2022-07-29T00:32:43;96281.13;;;18.48;79.14
4012;BME280;2020;48.682;9.024;2022-07-29T00:35:09;96279.31;;;18.41;79.01
4012;BME280;2020;48.682;9.024;2022-07-29T00:37:53;96282.97;;;18.40;78.94
4012;BME280;2020;48.682;9.024;2022-07-29T00:40:18;96277.34;;;18.30;78.97
4012;BME280;2020;48.682;9.024;2022-07-29T00:42:44;96278.75;;;18.33;78.80
4012;BME280;2020;48.682;9.024;2022-07-29T00:45:10;96272.25;;;18.35;78.62
4012;BME280;2020;48.682;9.024;2022-07-29T00:47:35;96268.78;;;18.41;78.38
4012;BME280;2020;48.682;9.024;2022-07-29T00:50:00;96264.59;;;18.27;78.44
4012;BME280;2020;48.682;9.024;2022-07-29T00:52:26;96259.44;;;18.46;77.67
4012;BME280;2020;48.682;9.024;2022-07-29T00:54:52;96255.38;;;18.50;77.22
4012;BME280;2020;48.682;9.024;2022-07-29T00:57:17;96258.59;;;18.59;76.16
4012;BME280;2020;48.682;9.024;2022-07-29T00:59:42;96256.75;;;18.59;76.09
4012;BME280;2020;48.682;9.024;2022-07-29T01:02:08;96259.28;;;18.40;76.92
4012;BME280;2020;48.682;9.024;2022-07-29T01:04:34;96256.81;;;18.46;76.94
4012;BME280;2020;48.682;9.024;2022-07-29T01:07:01;96245.25;;;18.47;76.92
4012;BME280;2020;48.682;9.024;2022-07-29T01:09:27;96246.44;;;18.51;76.55
4012;BME280;2020;48.682;9.024;2022-07-29T01:11:53;96246.44;;;18.51;76.42
4012;BME280;2020;48.682;9.024;2022-07-29T01:14:18;96244.16;;;18.61;76.06
4012;BME280;2020;48.682;9.024;2022-07-29T01:17:02;96242.34;;;18.62;76.22
4012;BME280;2020;48.682;9.024;2022-07-29T01:31:16;96245.69;;;18.44;76.93
4012;BME280;2020;48.682;9.024;2022-07-29T01:33:45;96242.78;;;18.52;76.63
4012;BME280;2020;48.682;9.024;2022-07-29T01:36:17;96235.50;;;18.47;76.87
4012;BME280;2020;48.682;9.024;2022-07-29T01:38:47;96244.47;;;18.39;76.88
4012;BME280;2020;48.682;9.024;2022-07-29T01:41:17;96243.41;;;18.08;78.48
4012;BME280;2020;48.682;9.024;2022-07-29T01:43:51;96247.06;;;18.07;78.41
4012;BME280;2020;48.682;9.024;2022-07-29T01:46:27;96238.53;;;17.98;79.53
4012;BME280;2020;48.682;9.024;2022-07-29T01:49:10;96234.72;;;18.01;79.21
4012;BME280;2020;48.682;9.024;2022-07-29T01:51:43;96232.28;;;18.06;78.60
4012;BME280;2020;48.682;9.024;2022-07-29T01:54:28;96226.81;;;17.88;79.26
4012;BME280;2020;48.682;9.024;2022-07-29T01:56:58;96227.22;;;17.98;79.01
4012;BME280;2020;48.682;9.024;2022-07-29T01:59:25;96229.47;;;18.01;78.52
4012;BME280;2020;48.682;9.024;2022-07-29T02:01:52;96228.81;;;17.99;78.46
4012;BME280;2020;48.682;9.024;2022-07-29T02:04:19;96230.06;;;18.03;78.09
4012;BME280;2020;48.682;9.024;2022-07-29T02:06:47;96223.97;;;17.96;78.23
4012;BME280;2020;48.682;9.024;2022-07-29T02:09:14;96228.03;;;17.92;78.32
4012;BME280;2020;48.682;9.024;2022-07-29T02:11:51;96227.03;;;17.79;78.81
4012;BME280;2020;48.682;9.024;2022-07-29T02:14:21;96220.75;;;17.94;78.33
4012;BME280;2020;48.682;9.024;2022-07-29T02:16:49;96222.97;;;17.97;78.10
4012;BME280;2020;48.682;9.024;2022-07-29T02:19:18;96221.50;;;18.08;77.33
4012;BME280;2020;48.682;9.024;2022-07-29T02:21:45;96225.22;;;18.00;77.68
4012;BME280;2020;48.682;9.024;2022-07-29T02:24:12;96216.47;;;18.06;77.45
4012;BME280;2020;48.682;9.024;2022-07-29T02:26:41;96223.97;;;17.96;77.98
4012;BME280;2020;48.682;9.024;2022-07-29T02:29:08;96213.88;;;17.93;78.12
4012;BME280;2020;48.682;9.024;2022-07-29T02:31:36;96214.28;;;17.90;78.46
4012;BME280;2020;48.682;9.024;2022-07-29T02:34:05;96216.56;;;17.66;79.51
4012;BME280;2020;48.682;9.024;2022-07-29T02:36:32;96218.00;;;17.48;79.81
4012;BME280;2020;48.682;9.024;2022-07-29T02:38:59;96219.41;;;17.58;79.69
4012;BME280;2020;48.682;9.024;2022-07-29T02:41:30;96220.00;;;17.60;79.79
4012;BME280;2020;48.682;9.024;2022-07-29T02:43:58;96214.28;;;17.76;78.83
4012;BME280;2020;48.682;9.024;2022-07-29T02:46:31;96221.97;;;17.84;78.25
4012;BME280;2020;48.682;9.024;2022-07-29T02:49:11;96217.16;;;17.75;78.97
4012;BME280;2020;48.682;9.024;2022-07-29T02:52:02;96210.69;;;17.64;79.38
4012;BME280;2020;48.682;9.024;2022-07-29T02:59:47;96209.34;;;17.14;81.93
4012;BME280;2020;48.682;9.024;2022-07-29T03:02:16;96215.19;;;17.43;80.52
4012;BME280;2020;48.682;9.024;2022-07-29T03:04:42;96219.66;;;17.36;81.06
4012;BME280;2020;48.682;9.024;2022-07-29T03:07:10;96212.38;;;17.45;80.40
4012;BME280;2020;48.682;9.024;2022-07-29T03:09:37;96211.13;;;17.47;80.54
4012;BME280;2020;48.682;9.024;2022-07-29T03:12:04;96209.94;;;17.50;80.39
4012;BME280;2020;48.682;9.024;2022-07-29T03:14:31;96215.56;;;17.53;80.08
4012;BME280;2020;48.682;9.024;2022-07-29T03:16:57;96214.78;;;17.46;80.43
4012;BME280;2020;48.682;9.024;2022-07-29T03:19:22;96217.25;;;17.34;81.13
4012;BME280;2020;48.682;9.024;2022-07-29T03:21:48;96210.56;;;17.18;81.78
4012;BME280;2020;48.682;9.024;2022-07-29T03:24:30;96216.03;;;17.10;82.48
4012;BME280;2020;48.682;9.024;2022-07-29T03:26:56;96221.88;;;17.19;81.99
4012;BME280;2020;48.682;9.024;2022-07-29T03:29:23;96221.28;;;17.17;81.82
4012;BME280;2020;48.682;9.024;2022-07-29T03:31:48;96227.75;;;17.28;81.00
4012;BME280;2020;48.682;9.024;2022-07-29T03:34:13;96220.06;;;17.33;80.71
4012;BME280;2020;48.682;9.024;2022-07-29T03:36:39;96223.28;;;17.35;80.53
4012;BME280;2020;48.682;9.024;2022-07-29T03:39:04;96222.91;;;17.31;80.36
4012;BME280;2020;48.682;9.024;2022-07-29T03:41:31;96228.97;;;17.32;80.10
4012;BME280;2020;48.682;9.024;2022-07-29T03:43:58;96224.31;;;17.34;80.24
4012;BME280;2020;48.682;9.024;2022-07-29T03:46:26;96227.72;;;17.41;79.31
4012;BME280;2020;48.682;9.024;2022-07-29T03:48:58;96230.56;;;17.46;78.73
4012;BME280;2020;48.682;9.024;2022-07-29T03:51:25;96230.97;;;17.43;79.32
4012;BME280;2020;48.682;9.024;2022-07-29T03:53:51;96222.06;;;17.44;78.58
4012;BME280;2020;48.682;9.024;2022-07-29T03:56:16;96226.72;;;17.42;78.56
4012;BME280;2020;48.682;9.024;2022-07-29T03:58:45;96220.84;;;17.40;79.12
4012;BME280;2020;48.682;9.024;2022-07-29T04:01:11;96223.28;;;17.35;79.10
4012;BME280;2020;48.682;9.024;2022-07-29T04:03:38;96228.97;;;17.32;79.21
4012;BME280;2020;48.682;9.024;2022-07-29T04:06:05;96225.72;;;17.30;79.33
4012;BME280;2020;48.682;9.024;2022-07-29T04:08:32;96233.84;;;17.28;79.33
4012;BME280;2020;48.682;9.024;2022-07-29T04:10:58;96236.25;;;17.30;78.99
4012;BME280;2020;48.682;9.024;2022-07-29T04:13:23;96229.34;;;17.22;79.16
4012;BME280;2020;48.682;9.024;2022-07-29T04:15:48;96235.84;;;17.19;79.25
4012;BME280;2020;48.682;9.024;2022-07-29T04:18:14;96240.09;;;17.20;79.04
4012;BME280;2020;48.682;9.024;2022-07-29T04:20:39;96239.09;;;17.21;79.12
4012;BME280;2020;48.682;9.024;2022-07-29T04:23:04;96243.53;;;17.28;79.24
4012;BME280;2020;48.682;9.024;2022-07-29T04:25:30;96239.50;;;17.25;78.75
4012;BME280;2020;48.682;9.024;2022-07-29T04:27:55;96230.38;;;17.28;78.67
4012;BME280;2020;48.682;9.024;2022-07-29T04:30:26;96239.47;;;17.32;78.16
4012;BME280;2020;48.682;9.024;2022-07-29T04:32:51;96233.84;;;17.28;78.21
4012;BME280;2020;48.682;9.024;2022-07-29T04:35:18;96238.06;;;17.36;78.14
4012;BME280;2020;48.682;9.024;2022-07-29T04:37:43;96242.94;;;17.25;78.37
4012;BME280;2020;48.682;9.024;2022-07-29T04:40:09;96243.94;;;17.38;77.49
4012;BME280;2020;48.682;9.024;2022-07-29T04:42:34;96242.31;;;17.37;78.43
4012;BME280;2020;48.682;9.024;2022-07-29T04:44:59;96244.91;;;17.50;77.18
4012;BME280;2020;48.682;9.024;2022-07-29T04:47:24;96242.09;;;17.52;77.86
4012;BME280;2020;48.682;9.024;2022-07-29T04:49:50;96248.75;;;17.61;77.36
4012;BME280;2020;48.682;9.024;2022-07-29T04:52:15;96240.84;;;17.68;76.97
4012;BME280;2020;48.682;9.024;2022-07-29T04:54:40;96251.19;;;17.69;76.51
4012;BME280;2020;48.682;9.024;2022-07-29T04:57:05;96245.88;;;17.76;76.51
4012;BME280;2020;48.682;9.024;2022-07-29T04:59:31;96245.88;;;17.76;77.12
4012;BME280;2020;48.682;9.024;2022-07-29T05:01:56;96241.44;;;17.77;76.62
4012;BME280;2020;48.682;9.024;2022-07-29T05:04:21;96248.69;;;17.81;76.54
4012;BME280;2020;48.682;9.024;2022-07-29T05:06:47;96244.63;;;17.86;76.13
4012;BME280;2020;48.682;9.024;2022-07-29T05:09:13;96254.19;;;17.73;77.12
4012;BME280;2020;48.682;9.024;2022-07-29T05:11:38;96248.28;;;17.84;76.83
4012;BME280;2020;48.682;9.024;2022-07-29T05:14:04;96251.97;;;17.70;77.18
4012;BME280;2020;48.682;9.024;2022-07-29T05:16:29;96246.28;;;17.73;77.72
4012;BME280;2020;48.682;9.024;2022-07-29T05:18:54;96245.88;;;17.76;77.77
4012;BME280;2020;48.682;9.024;2022-07-29T05:21:19;96246.31;;;17.66;78.42
4012;BME280;2020;48.682;9.024;2022-07-29T05:23:45;96251.56;;;17.73;78.12
4012;BME280;2020;48.682;9.024;2022-07-29T05:26:10;96253.97;;;17.81;77.50
4012;BME280;2020;48.682;9.024;2022-07-29T05:28:35;96256.41;;;17.90;77.57
4012;BME280;2020;48.682;9.024;2022-07-29T05:31:01;96258.44;;;17.74;77.90
4012;BME280;2020;48.682;9.024;2022-07-29T05:33:26;96256.41;;;17.76;78.37
4012;BME280;2020;48.682;9.024;2022-07-29T05:35:51;96253.13;;;17.88;77.81
4012;BME280;2020;48.682;9.024;2022-07-29T05:38:17;96261.25;;;17.93;78.26
4012;BME280;2020;48.682;9.024;2022-07-29T05:40:42;96261.59;;;18.17;77.02
4012;BME280;2020;48.682;9.024;2022-07-29T05:43:07;96257.50;;;18.27;76.61
4012;BME280;2020;48.682;9.024;2022-07-29T05:45:33;96255.13;;;18.12;76.74
4012;BME280;2020;48.682;9.024;2022-07-29T05:47:58;96257.16;;;18.10;77.23
4012;BME280;2020;48.682;9.024;2022-07-29T05:50:23;96256.69;;;18.27;76.74
4012;BME280;2020;48.682;9.024;2022-07-29T05:52:49;96262.69;;;18.48;76.08
4012;BME280;2020;48.682;9.024;2022-07-29T05:55:14;96253.34;;;18.52;75.65
4012;BME280;2020;48.682;9.024;2022-07-29T05:57:40;96258.34;;;18.60;75.40
4012;BME280;2020;48.682;9.024;2022-07-29T06:00:06;96271.63;;;18.79;75.99
4012;BME280;2020;48.682;9.024;2022-07-29T06:02:31;96267.00;;;18.74;75.31
4012;BME280;2020;48.682;9.024;2022-07-29T06:04:57;96275.59;;;18.56;76.78
4012;BME280;2020;48.682;9.024;2022-07-29T06:07:22;96271.72;;;18.65;76.57
4012;BME280;2020;48.682;9.024;2022-07-29T06:09:47;96270.09;;;18.96;75.00
4012;BME280;2020;48.682;9.024;2022-07-29T06:12:12;96274.00;;;19.19;75.11
4012;BME280;2020;48.682;9.024;2022-07-29T06:14:38;96282.31;;;19.23;74.38
4012;BME280;2020;48.682;9.024;2022-07-29T06:17:04;96286.38;;;19.25;73.91
4012;BME280;2020;48.682;9.024;2022-07-29T06:19:30;96277.66;;;19.18;75.25
4012;BME280;2020;48.682;9.024;2022-07-29T06:21:55;96280.38;;;19.37;74.11
4012;BME280;2020;48.682;9.024;2022-07-29T06:24:21;96280.38;;;19.37;74.68
4012;BME280;2020;48.682;9.024;2022-07-29T06:26:46;96285.34;;;19.70;73.21
4012;BME280;2020;48.682;9.024;2022-07-29T06:29:11;96281.63;;;19.78;73.09
4012;BME280;2020;48.682;9.024;2022-07-29T06:31:37;96284.03;;;19.80;73.88
4012;BME280;2020;48.682;9.024;2022-07-29T06:34:03;96286.94;;;20.15;73.51
4012;BME280;2020;48.682;9.024;2022-07-29T06:36:28;96281.00;;;20.39;72.27
4012;BME280;2020;48.682;9.024;2022-07-29T06:38:53;96285.13;;;20.35;71.53
4012;BME280;2020;48.682;9.024;2022-07-29T06:41:19;96281.00;;;20.39;71.83
4012;BME280;2020;48.682;9.024;2022-07-29T06:43:45;96285.41;;;20.26;72.18
4012;BME280;2020;48.682;9.024;2022-07-29T06:46:12;96293.13;;;20.09;70.76
4012;BME280;2020;48.682;9.024;2022-07-29T06:48:38;96293.72;;;19.93;72.55
4012;BME280;2020;48.682;9.024;2022-07-29T06:51:05;96291.75;;;20.07;71.65
4012;BME280;2020;48.682;9.024;2022-07-29T06:53:31;96288.56;;;20.16;71.57
4012;BME280;2020;48.682;9.024;2022-07-29T06:55:58;96285.03;;;20.41;71.30
4012;BME280;2020;48.682;9.024;2022-07-29T06:58:24;96282.06;;;20.50;71.63
4012;BME280;2020;48.682;9.024;2022-07-29T07:00:50;96290.88;;;20.62;72.18
4012;BME280;2020;48.682;9.024;2022-07-29T07:03:17;96303.63;;;20.84;69.36
4012;BME280;2020;48.682;9.024;2022-07-29T07:05:43;96294.03;;;21.01;70.24
4012;BME280;2020;48.682;9.024;2022-07-29T07:08:09;96291.38;;;21.13;69.97
4012;BME280;2020;48.682;9.024;2022-07-29T07:10:34;96292.91;;;21.21;71.21
4012;BME280;2020;48.682;9.024;2022-07-29T07:13:01;96303.25;;;21.11;68.77
4012;BME280;2020;48.682;9.024;2022-07-29T07:15:27;96303.25;;;21.11;69.50
4012;BME280;2020;48.682;9.024;2022-07-29T07:17:52;96308.78;;;21.21;69.23
4012;BME280;2020;48.682;9.024;2022-07-29T07:20:18;96314.63;;;21.11;70.28
4012;BME280;2020;48.682;9.024;2022-07-29T07:22:43;96310.75;;;20.83;70.11
4012;BME280;2020;48.682;9.024;2022-07-29T07:25:09;96311.06;;;21.06;70.47
4012;BME280;2020;48.682;9.024;2022-07-29T07:27:35;96319.56;;;20.77;69.42
4012;BME280;2020;48.682;9.024;2022-07-29T07:30:01;96316.28;;;20.82;69.20
4012;BME280;2020;48.682;9.024;2022-07-29T07:32:27;96313.53;;;21.31;69.72
4012;BME280;2020;48.682;9.024;2022-07-29T07:34:52;96314.25;;;21.50;68.61
4012;BME280;2020;48.682;9.024;2022-07-29T07:37:17;96309.75;;;21.62;66.92
4012;BME280;2020;48.682;9.024;2022-07-29T07:39:45;96312.44;;;21.86;67.92
4012;BME280;2020;48.682;9.024;2022-07-29T07:42:11;96315.44;;;22.02;66.50
4012;BME280;2020;48.682;9.024;2022-07-29T07:44:38;96318.41;;;22.05;66.12
4012;BME280;2020;48.682;9.024;2022-07-29T07:47:03;96314.81;;;22.24;66.79
4012;BME280;2020;48.682;9.024;2022-07-29T07:49:29;96316.66;;;22.35;66.14
4012;BME280;2020;48.682;9.024;2022-07-29T07:51:54;96310.53;;;22.46;65.33
4012;BME280;2020;48.682;9.024;2022-07-29T07:54:19;96305.06;;;22.65;64.81
4012;BME280;2020;48.682;9.024;2022-07-29T07:56:44;96306.53;;;22.73;62.43
4012;BME280;2020;48.682;9.024;2022-07-29T07:59:10;96313.06;;;22.82;60.98
4012;BME280;2020;48.682;9.024;2022-07-29T08:01:35;96317.59;;;23.16;61.07
4012;BME280;2020;48.682;9.024;2022-07-29T08:04:00;96315.50;;;23.47;58.92
4012;BME280;2020;48.682;9.024;2022-07-29T08:06:25;96318.31;;;23.57;57.67
4012;BME280;2020;48.682;9.024;2022-07-29T08:08:51;96317.34;;;23.46;58.12
4012;BME280;2020;48.682;9.024;2022-07-29T08:11:16;96318.25;;;23.52;57.28
4012;BME280;2020;48.682;9.024;2022-07-29T08:13:42;96302.41;;;23.79;57.94
4012;BME280;2020;48.682;9.024;2022-07-29T08:16:08;96315.44;;;24.15;57.28
4012;BME280;2020;48.682;9.024;2022-07-29T08:18:38;96311.06;;;24.26;56.68
4012;BME280;2020;48.682;9.024;2022-07-29T08:21:03;96305.81;;;24.31;56.93
4012;BME280;2020;48.682;9.024;2022-07-29T08:23:29;96298.56;;;24.27;55.46
4012;BME280;2020;48.682;9.024;2022-07-29T08:26:07;96300.22;;;24.33;55.86
4012;BME280;2020;48.682;9.024;2022-07-29T08:28:37;96305.75;;;24.26;55.20
4012;BME280;2020;48.682;9.024;2022-07-29T08:31:02;96307.91;;;24.29;54.51
4012;BME280;2020;48.682;9.024;2022-07-29T08:33:27;96306.16;;;24.40;53.62
4012;BME280;2020;48.682;9.024;2022-07-29T08:35:52;96308.38;;;24.48;52.76
4012;BME280;2020;48.682;9.024;2022-07-29T08:38:18;96304.00;;;24.81;52.94
4012;BME280;2020;48.682;9.024;2022-07-29T08:40:43;96306.59;;;25.04;51.32
4012;BME280;2020;48.682;9.024;2022-07-29T08:43:08;96301.13;;;25.16;50.59
4012;BME280;2020;48.682;9.024;2022-07-29T08:45:42;96302.59;;;25.34;49.06
4012;BME280;2020;48.682;9.024;2022-07-29T08:48:09;96313.03;;;25.40;49.08
4012;BME280;2020;48.682;9.024;2022-07-29T08:50:36;96304.63;;;25.54;49.41
4012;BME280;2020;48.682;9.024;2022-07-29T08:53:03;96312.72;;;25.69;48.70
4012;BME280;2020;48.682;9.024;2022-07-29T08:55:29;96308.81;;;25.82;48.31
4012;BME280;2020;48.682;9.024;2022-07-29T08:57:55;96314.09;;;25.72;47.10
4012;BME280;2020;48.682;9.024;2022-07-29T09:00:22;96315.53;;;25.85;46.57
4012;BME280;2020;48.682;9.024;2022-07-29T09:02:51;96317.31;;;25.74;46.53
4012;BME280;2020;48.682;9.024;2022-07-29T09:05:23;96311.38;;;26.05;46.75
4012;BME280;2020;48.682;9.024;2022-07-29T09:07:49;96316.63;;;25.94;47.35
4012;BME280;2020;48.682;9.024;2022-07-29T09:10:15;96314.66;;;26.17;46.38
4012;BME280;2020;48.682;9.024;2022-07-29T09:12:40;96308.81;;;26.25;46.03
4012;BME280;2020;48.682;9.024;2022-07-29T09:15:06;96305.34;;;26.25;45.95
4012;BME280;2020;48.682;9.024;2022-07-29T09:17:42;96312.00;;;26.22;45.97
4012;BME280;2020;48.682;9.024;2022-07-29T09:20:12;96307.25;;;26.35;45.67
4012;BME280;2020;48.682;9.024;2022-07-29T09:22:38;96308.31;;;26.34;44.22
4012;BME280;2020;48.682;9.024;2022-07-29T09:25:03;96311.94;;;26.81;44.39
4012;BME280;2020;48.682;9.024;2022-07-29T09:27:29;96307.44;;;27.02;42.96
4012;BME280;2020;48.682;9.024;2022-07-29T09:30:04;96309.00;;;26.82;42.42
4012;BME280;2020;48.682;9.024;2022-07-29T09:32:31;96307.19;;;26.88;42.99
4012;BME280;2020;48.682;9.024;2022-07-29T09:35:16;96304.22;;;26.90;43.45
4012;BME280;2020;48.682;9.024;2022-07-29T09:37:43;96298.91;;;26.90;43.16
4012;BME280;2020;48.682;9.024;2022-07-29T09:40:23;96294.56;;;26.73;43.57
4012;BME280;2020;48.682;9.024;2022-07-29T09:42:49;96294.56;;;26.73;44.69
4012;BME280;2020;48.682;9.024;2022-07-29T09:45:45;96298.13;;;26.20;44.44
4012;BME280;2020;48.682;9.024;2022-07-29T09:48:17;96288.00;;;26.17;45.12
4012;BME280;2020;48.682;9.024;2022-07-29T09:50:44;96293.09;;;26.29;45.22
4012;BME280;2020;48.682;9.024;2022-07-29T09:53:10;96293.25;;;26.07;44.65
4012;BME280;2020;48.682;9.024;2022-07-29T09:55:50;96297.16;;;26.47;44.92
4012;BME280;2020;48.682;9.024;2022-07-29T09:58:20;96280.94;;;26.59;43.97
4012;BME280;2020;48.682;9.024;2022-07-29T10:00:47;96285.00;;;26.88;43.71
4012;BME280;2020;48.682;9.024;2022-07-29T10:03:14;96294.13;;;27.18;43.53
4012;BME280;2020;48.682;9.024;2022-07-29T10:05:40;96297.25;;;26.78;44.13
4012;BME280;2020;48.682;9.024;2022-07-29T10:08:07;96286.53;;;26.57;44.33
4012;BME280;2020;48.682;9.024;2022-07-29T10:10:36;96290.88;;;26.90;43.12
4012;BME280;2020;48.682;9.024;2022-07-29T10:13:04;96294.66;;;27.46;43.58
4012;BME280;2020;48.682;9.024;2022-07-29T10:15:32;96277.56;;;27.62;41.27
4012;BME280;2020;48.682;9.024;2022-07-29T10:17:59;96276.50;;;27.37;41.30
4012;BME280;2020;48.682;9.024;2022-07-29T10:20:26;96276.22;;;27.59;42.30
4012;BME280;2020;48.682;9.024;2022-07-29T10:22:52;96283.44;;;27.49;41.74
4012;BME280;2020;48.682;9.024;2022-07-29T10:25:18;96286.13;;;27.33;41.83
4012;BME280;2020;48.682;9.024;2022-07-29T10:27:45;96291.47;;;27.33;41.30
4012;BME280;2020;48.682;9.024;2022-07-29T10:30:12;96293.06;;;27.44;42.70
4012;BME280;2020;48.682;9.024;2022-07-29T10:38:42;96309.94;;;25.49;48.49
4012;BME280;2020;48.682;9.024;2022-07-29T10:44:05;96314.28;;;24.28;55.49
4012;BME280;2020;48.682;9.024;2022-07-29T10:46:36;96305.63;;;23.99;55.61
4012;BME280;2020;48.682;9.024;2022-07-29T10:49:13;96320.16;;;23.57;57.99
4012;BME280;2020;48.682;9.024;2022-07-29T10:52:00;96339.31;;;23.42;64.23
4012;BME280;2020;48.682;9.024;2022-07-29T10:59:42;96354.78;;;22.87;72.98
4012;BME280;2020;48.682;9.024;2022-07-29T11:02:41;96360.19;;;22.63;68.66
4012;BME280;2020;48.682;9.024;2022-07-29T11:05:13;96352.25;;;22.51;69.57
4012;BME280;2020;48.682;9.024;2022-07-29T11:10:39;96333.22;;;22.42;68.75
4012;BME280;2020;48.682;9.024;2022-07-29T11:13:05;96344.81;;;22.12;72.38
4012;BME280;2020;48.682;9.024;2022-07-29T11:15:56;96352.19;;;21.98;73.51
4012;BME280;2020;48.682;9.024;2022-07-29T11:18:22;96356.72;;;21.55;71.37
4012;BME280;2020;48.682;9.024;2022-07-29T11:20:49;96344.44;;;21.61;75.53
4012;BME280;2020;48.682;9.024;2022-07-29T11:23:34;96337.97;;;21.57;70.31
4012;BME280;2020;48.682;9.024;2022-07-29T11:26:18;96345.44;;;21.48;70.54
4012;BME280;2020;48.682;9.024;2022-07-29T11:31:42;96336.22;;;21.39;72.79
4012;BME280;2020;48.682;9.024;2022-07-29T11:34:31;96343.81;;;21.47;71.81
4012;BME280;2020;48.682;9.024;2022-07-29T11:39:32;96348.56;;;21.02;72.01
4012;BME280;2020;48.682;9.024;2022-07-29T11:50:13;96347.88;;;20.58;75.64
4012;BME280;2020;48.682;9.024;2022-07-29T11:52:43;96335.38;;;20.46;75.47
4012;BME280;2020;48.682;9.024;2022-07-29T11:55:11;96332.97;;;20.26;74.83
4012;BME280;2020;48.682;9.024;2022-07-29T11:57:45;96346.53;;;20.30;74.87
4012;BME280;2020;48.682;9.024;2022-07-29T12:00:12;96347.28;;;20.37;73.84
4012;BME280;2020;48.682;9.024;2022-07-29T12:02:41;96343.03;;;20.17;71.88
4012;BME280;2020;48.682;9.024;2022-07-29T12:05:09;96340.81;;;20.33;74.51
4012;BME280;2020;48.682;9.024;2022-07-29T12:07:35;96339.91;;;20.77;77.60
4012;BME280;2020;48.682;9.024;2022-07-29T12:10:02;96343.78;;;20.93;74.00
4012;BME280;2020;48.682;9.024;2022-07-29T12:12:28;96337.44;;;20.82;74.75
4012;BME280;2020;48.682;9.024;2022-07-29T12:14:53;96327.88;;;20.81;74.56
4012;BME280;2020;48.682;9.024;2022-07-29T12:17:34;96321.84;;;20.92;73.55
4012;BME280;2020;48.682;9.024;2022-07-29T12:20:03;96326.53;;;20.90;72.64
4012;BME280;2020;48.682;9.024;2022-07-29T12:22:34;96334.16;;;20.98;74.11
4012;BME280;2020;48.682;9.024;2022-07-29T12:25:04;96330.41;;;21.18;73.84
4012;BME280;2020;48.682;9.024;2022-07-29T12:27:30;96334.88;;;21.17;69.39
4012;BME280;2020;48.682;9.024;2022-07-29T12:30:01;96337.47;;;21.36;68.73
4012;BME280;2020;48.682;9.024;2022-07-29T12:32:53;96321.44;;;21.19;71.81
4012;BME280;2020;48.682;9.024;2022-07-29T12:35:19;96322.34;;;21.13;71.13
4012;BME280;2020;48.682;9.024;2022-07-29T12:37:47;96324.09;;;21.19;71.23
4012;BME280;2020;48.682;9.024;2022-07-29T12:40:15;96322.97;;;21.27;70.89
4012;BME280;2020;48.682;9.024;2022-07-29T12:45:34;96337.78;;;21.16;71.63
4012;BME280;2020;48.682;9.024;2022-07-29T12:48:00;96344.69;;;21.17;71.99
4012;BME280;2020;48.682;9.024;2022-07-29T12:50:25;96348.88;;;20.94;71.21
4012;BME280;2020;48.682;9.024;2022-07-29T12:52:51;96368.59;;;20.61;73.58
4012;BME280;2020;48.682;9.024;2022-07-29T12:55:40;96375.91;;;20.22;77.88
4012;BME280;2020;48.682;9.024;2022-07-29T12:58:05;96379.13;;;20.24;78.21
4012;BME280;2020;48.682;9.024;2022-07-29T13:00:30;96376.34;;;20.19;77.24
4012;BME280;2020;48.682;9.024;2022-07-29T13:02:57;96373.41;;;20.27;76.47
4012;BME280;2020;48.682;9.024;2022-07-29T13:05:23;96381.94;;;20.29;74.60
4012;BME280;2020;48.682;9.024;2022-07-29T13:07:49;96384.13;;;20.13;76.48
4012;BME280;2020;48.682;9.024;2022-07-29T13:10:20;96384.13;;;20.13;75.65
4012;BME280;2020;48.682;9.024;2022-07-29T13:13:06;96380.25;;;19.91;75.92
4012;BME280;2020;48.682;9.024;2022-07-29T13:15:34;96380.56;;;20.01;77.16
4012;BME280;2020;48.682;9.024;2022-07-29T13:18:00;96378.09;;;20.06;77.36
4012;BME280;2020;48.682;9.024;2022-07-29T13:20:28;96373.69;;;20.00;76.89
4012;BME280;2020;48.682;9.024;2022-07-29T13:22:58;96384.69;;;19.97;77.39
4012;BME280;2020;48.682;9.024;2022-07-29T13:25:29;96385.00;;;20.07;79.12
4012;BME280;2020;48.682;9.024;2022-07-29T13:27:55;96368.09;;;19.90;80.57
4012;BME280;2020;48.682;9.024;2022-07-29T13:30:21;96349.09;;;19.74;85.50
4012;BME280;2020;48.682;9.024;2022-07-29T13:32:47;96338.06;;;19.58;84.51
4012;BME280;2020;48.682;9.024;2022-07-29T13:35:13;96344.81;;;19.54;85.28
4012;BME280;2020;48.682;9.024;2022-07-29T13:37:39;96350.72;;;19.75;86.47
4012;BME280;2020;48.682;9.024;2022-07-29T13:40:05;96337.66;;;19.80;83.93
4012;BME280;2020;48.682;9.024;2022-07-29T13:42:34;96348.31;;;20.17;84.88
4012;BME280;2020;48.682;9.024;2022-07-29T13:45:00;96343.59;;;20.38;84.96
4012;BME280;2020;48.682;9.024;2022-07-29T13:47:26;96347.56;;;20.48;79.75
4012;BME280;2020;48.682;9.024;2022-07-29T13:49:51;96345.81;;;20.60;79.96
4012;BME280;2020;48.682;9.024;2022-07-29T13:52:18;96339.50;;;20.80;80.22
4012;BME280;2020;48.682;9.024;2022-07-29T13:54:44;96337.25;;;20.95;79.35
4012;BME280;2020;48.682;9.024;2022-07-29T13:57:10;96334.28;;;21.03;79.82
4012;BME280;2020;48.682;9.024;2022-07-29T13:59:35;96328.81;;;21.17;78.92
4012;BME280;2020;48.682;9.024;2022-07-29T14:02:01;96327.69;;;21.37;79.32
4012;BME280;2020;48.682;9.024;2022-07-29T14:04:26;96324.84;;;21.38;78.75
4012;BME280;2020;48.682;9.024;2022-07-29T14:06:51;96330.81;;;21.45;75.75
4012;BME280;2020;48.682;9.024;2022-07-29T14:09:16;96342.22;;;21.46;79.26
4012;BME280;2020;48.682;9.024;2022-07-29T14:11:42;96334.16;;;21.41;75.29
4012;BME280;2020;48.682;9.024;2022-07-29T14:14:07;96325.50;;;21.22;74.58
4012;BME280;2020;48.682;9.024;2022-07-29T14:16:33;96328.72;;;21.24;75.72